createdAt,value
2023-04-12T00:01:48.590Z,43.90
2023-04-12T00:04:17.256Z,44.20
2023-04-12T00:06:48.567Z,44.14
2023-04-12T00:09:16.854Z,44.49
2023-04-12T00:11:44.664Z,44.73
2023-04-12T00:14:13.945Z,44.38
2023-04-12T00:16:41.754Z,44.55
2023-04-12T00:19:09.607Z,44.14
2023-04-12T00:21:37.352Z,44.52
2023-04-12T00:24:05.769Z,44.22
2023-04-12T00:26:33.538Z,44.62
2023-04-12T00:29:01.463Z,44.76
2023-04-12T00:31:30.678Z,44.42
2023-04-12T00:33:58.912Z,44.99
2023-04-12T00:36:28.193Z,44.96
2023-04-12T00:38:55.977Z,45.50
2023-04-12T00:41:24.960Z,45.17
2023-04-12T00:43:52.746Z,45.12
2023-04-12T00:46:20.759Z,45.42
2023-04-12T00:48:50.272Z,45.45
2023-04-12T00:51:18.367Z,46.52
2023-04-12T00:53:46.366Z,45.98
2023-04-12T00:56:14.402Z,46.49
2023-04-12T00:58:42.250Z,46.73
2023-04-12T01:01:10.643Z,46.40
2023-04-12T01:03:43.191Z,47.02
2023-04-12T01:06:17.241Z,46.87
2023-04-12T01:08:55.819Z,47.04
2023-04-12T01:11:32.184Z,46.74
2023-04-12T01:14:08.931Z,47.55
2023-04-12T01:16:41.251Z,46.93
2023-04-12T01:19:30.856Z,47.54
2023-04-12T01:22:18.168Z,48.07
2023-04-12T01:24:57.549Z,48.21
2023-04-12T01:27:40.064Z,48.61
2023-04-12T01:30:09.451Z,50.01
2023-04-12T01:32:39.359Z,49.16
2023-04-12T01:35:09.522Z,48.67
2023-04-12T01:37:37.924Z,49.12
2023-04-12T01:40:09.147Z,49.54
2023-04-12T01:42:38.337Z,50.83
2023-04-12T01:45:07.490Z,50.76
2023-04-12T01:47:36.772Z,51.60
2023-04-12T01:50:15.398Z,51.72
2023-04-12T01:52:47.108Z,52.43
2023-04-12T01:55:17.701Z,52.84
2023-04-12T01:57:49.240Z,52.94
2023-04-12T02:00:19.124Z,52.77
2023-04-12T02:02:47.152Z,52.94
2023-04-12T02:05:16.244Z,53.47
2023-04-12T02:07:44.677Z,54.64
2023-04-12T02:10:15.048Z,54.74
2023-04-12T02:12:42.896Z,54.80
2023-04-12T02:15:13.227Z,55.07
2023-04-12T02:17:41.076Z,54.78
2023-04-12T02:20:11.920Z,56.52
2023-04-12T02:22:39.868Z,56.07
2023-04-12T02:25:08.338Z,56.10
2023-04-12T02:27:36.179Z,56.90
2023-04-12T02:30:05.122Z,56.84
2023-04-12T02:32:43.939Z,57.24
2023-04-12T02:35:17.498Z,57.77
2023-04-12T02:37:48.427Z,58.00
2023-04-12T02:40:16.707Z,58.49
2023-04-12T02:42:45.590Z,57.24
2023-04-12T02:45:14.738Z,58.60
2023-04-12T02:47:45.004Z,58.47
2023-04-12T02:50:12.894Z,58.44
2023-04-12T02:52:52.776Z,59.15
2023-04-12T02:55:20.637Z,58.98
2023-04-12T02:57:48.622Z,59.44
2023-04-12T03:00:17.981Z,59.60
2023-04-12T03:02:51.578Z,59.17
2023-04-12T03:05:24.595Z,60.12
2023-04-12T03:07:53.207Z,59.61
2023-04-12T03:10:27.142Z,58.97
2023-04-12T03:13:03.223Z,60.40
2023-04-12T03:15:35.893Z,60.37
2023-04-12T03:18:05.887Z,60.10
2023-04-12T03:20:46.044Z,61.11
2023-04-12T03:23:16.962Z,60.92
2023-04-12T03:25:48.800Z,60.58
2023-04-12T03:28:35.874Z,59.81
2023-04-12T03:31:06.652Z,60.13
2023-04-12T03:33:41.924Z,60.58
2023-04-12T03:36:21.574Z,60.83
2023-04-12T03:38:54.799Z,60.62
2023-04-12T03:41:23.457Z,59.76
2023-04-12T03:43:51.353Z,60.64
2023-04-12T03:46:20.194Z,61.09
2023-04-12T03:48:56.751Z,60.16
2023-04-12T03:51:26.734Z,60.88
2023-04-12T03:53:59.841Z,61.00
2023-04-12T03:56:27.941Z,60.34
2023-04-12T03:58:57.803Z,60.96
2023-04-12T04:01:25.955Z,60.57
2023-04-12T04:03:56.338Z,60.38
2023-04-12T04:06:26.642Z,59.94
2023-04-12T04:08:57.722Z,59.67
2023-04-12T04:11:26.826Z,59.64
2023-04-12T04:14:00.424Z,60.32
2023-04-12T04:16:30.124Z,59.79
2023-04-12T04:18:59.822Z,59.74
2023-04-12T04:21:30.343Z,59.41
2023-04-12T04:24:01.092Z,59.88
2023-04-12T04:26:33.643Z,59.67
2023-04-12T04:29:23.631Z,59.89
2023-04-12T04:31:53.152Z,60.26
2023-04-12T04:34:23.436Z,60.56
2023-04-12T04:36:57.632Z,60.75
2023-04-12T04:39:28.252Z,59.51
2023-04-12T04:41:58.185Z,60.18
2023-04-12T04:44:37.299Z,59.74
2023-04-12T04:47:08.610Z,60.29
2023-04-12T04:49:38.457Z,60.35
2023-04-12T04:52:18.372Z,60.24
2023-04-12T04:54:48.280Z,59.64
2023-04-12T04:57:16.361Z,59.56
2023-04-12T04:59:44.585Z,59.67
2023-04-12T05:02:18.783Z,60.26
2023-04-12T05:04:47.967Z,60.22
2023-04-12T05:07:19.697Z,59.45
2023-04-12T05:09:49.389Z,60.52
2023-04-12T05:12:19.729Z,59.90
2023-04-12T05:14:52.076Z,59.68
2023-04-12T05:17:20.439Z,59.87
2023-04-12T05:19:49.834Z,59.79
2023-04-12T05:22:20.463Z,59.47
2023-04-12T05:24:48.433Z,59.82
2023-04-12T05:27:17.117Z,59.67
2023-04-12T05:29:47.146Z,58.85
2023-04-12T05:32:16.739Z,60.03
2023-04-12T05:34:44.670Z,59.91
2023-04-12T05:37:13.939Z,60.02
2023-04-12T05:39:41.771Z,61.24
2023-04-12T05:42:11.333Z,61.12
2023-04-12T05:44:40.454Z,61.25
2023-04-12T05:47:13.015Z,61.81
2023-04-12T05:49:40.923Z,62.57
2023-04-12T05:52:11.030Z,63.57
2023-04-12T05:54:41.719Z,64.29
2023-04-12T05:57:13.864Z,65.00
2023-04-12T05:59:41.729Z,66.45
2023-04-12T06:02:10.356Z,67.32
2023-04-12T06:04:50.286Z,68.29
2023-04-12T06:07:19.474Z,68.47
2023-04-12T06:09:49.818Z,70.13
2023-04-12T06:12:18.455Z,70.12
2023-04-12T06:14:46.584Z,70.57
2023-04-12T06:17:14.489Z,70.62
2023-04-12T06:19:42.955Z,71.18
2023-04-12T06:22:10.842Z,71.33
2023-04-12T06:24:40.904Z,71.27
2023-04-12T06:27:13.048Z,72.33
2023-04-12T06:29:40.808Z,72.70
2023-04-12T06:32:08.816Z,74.04
2023-04-12T06:34:36.778Z,73.78
2023-04-12T06:37:09.207Z,74.61
2023-04-12T06:39:37.011Z,74.07
2023-04-12T06:42:05.130Z,73.30
2023-04-12T06:44:34.305Z,73.11
2023-04-12T06:47:02.122Z,73.97
2023-04-12T06:49:29.931Z,74.61
2023-04-12T06:51:57.805Z,74.02
2023-04-12T06:54:26.659Z,74.32
2023-04-12T06:56:54.642Z,75.55
2023-04-12T06:59:22.637Z,75.67
2023-04-12T07:01:51.866Z,75.72
2023-04-12T07:04:19.861Z,76.45
2023-04-12T07:06:47.921Z,76.34
2023-04-12T07:09:15.716Z,75.89
2023-04-12T07:11:43.575Z,76.05
2023-04-12T07:14:11.400Z,76.23
2023-04-12T07:16:39.225Z,75.95
2023-04-12T07:19:08.440Z,76.60
2023-04-12T07:21:36.396Z,75.96
2023-04-12T07:24:04.913Z,75.54
2023-04-12T07:26:32.718Z,76.22
2023-04-12T07:29:00.524Z,77.05
2023-04-12T07:31:30.461Z,75.72
2023-04-12T07:33:58.363Z,75.30
2023-04-12T07:36:28.706Z,76.00
2023-04-12T07:38:57.119Z,75.19
2023-04-12T07:41:25.325Z,75.65
2023-04-12T07:43:53.162Z,74.83
2023-04-12T07:46:21.153Z,75.00
2023-04-12T07:48:49.162Z,74.89
2023-04-12T07:51:16.975Z,76.28
2023-04-12T07:53:48.353Z,75.78
2023-04-12T07:56:16.717Z,75.59
2023-04-12T07:58:44.584Z,75.10
2023-04-12T08:01:13.245Z,74.70
2023-04-12T08:03:41.160Z,75.21
2023-04-12T08:06:10.215Z,75.40
2023-04-12T08:08:38.478Z,74.33
2023-04-12T08:11:07.923Z,74.19
2023-04-12T08:13:35.969Z,72.79
2023-04-12T08:16:04.001Z,72.12
2023-04-12T08:18:31.856Z,72.16
2023-04-12T08:20:59.801Z,72.61
2023-04-12T08:23:27.970Z,72.40
2023-04-12T08:26:03.036Z,72.30
2023-04-12T08:28:32.907Z,72.03
2023-04-12T08:31:00.985Z,71.20
2023-04-12T08:33:29.094Z,71.27
2023-04-12T08:35:57.009Z,72.06
2023-04-12T08:38:45.050Z,72.51
2023-04-12T08:41:14.855Z,71.45
2023-04-12T08:43:47.346Z,72.04
2023-04-12T08:46:18.002Z,71.74
2023-04-12T08:48:47.203Z,72.07
2023-04-12T08:51:16.584Z,74.02
2023-04-12T08:53:44.625Z,72.91
2023-04-12T08:56:13.711Z,72.82
2023-04-12T08:58:46.676Z,73.89
2023-04-12T09:01:15.835Z,72.75
2023-04-12T09:03:44.521Z,74.68
2023-04-12T09:06:13.172Z,73.96
2023-04-12T09:08:53.158Z,73.09
2023-04-12T09:11:25.930Z,72.57
2023-04-12T09:13:57.654Z,72.89
2023-04-12T09:16:36.557Z,72.91
2023-04-12T09:19:04.863Z,70.55
2023-04-12T09:21:34.580Z,69.71
2023-04-12T09:24:11.007Z,71.98
2023-04-12T09:26:40.128Z,70.77
2023-04-12T09:29:24.260Z,71.96
2023-04-12T09:32:01.368Z,72.49
2023-04-12T09:34:29.409Z,71.76
2023-04-12T09:36:57.701Z,71.97
2023-04-12T09:39:33.389Z,71.67
2023-04-12T09:42:18.120Z,71.97
2023-04-12T09:44:58.364Z,70.83
2023-04-12T09:47:38.344Z,70.82
2023-04-12T09:50:07.996Z,70.72
2023-04-12T09:52:40.275Z,70.56
2023-04-12T09:55:11.275Z,70.73
2023-04-12T09:57:41.811Z,68.62
2023-04-12T10:00:17.312Z,69.55
2023-04-12T10:02:47.795Z,67.74
2023-04-12T10:05:19.596Z,67.89
2023-04-12T10:07:48.513Z,66.22
2023-04-12T10:10:18.244Z,66.03
2023-04-12T10:12:48.129Z,66.03
2023-04-12T10:15:18.551Z,64.96
2023-04-12T10:17:48.950Z,64.37
2023-04-12T10:20:18.763Z,65.12
2023-04-12T10:22:48.577Z,67.41
2023-04-12T10:25:18.973Z,68.52
2023-04-12T10:27:47.985Z,67.22
2023-04-12T10:30:27.126Z,65.07
2023-04-12T10:33:14.194Z,62.60
2023-04-12T10:36:12.265Z,64.41
2023-04-12T10:38:46.810Z,61.91
2023-04-12T10:41:17.037Z,62.95
2023-04-12T10:43:45.824Z,61.99
2023-04-12T10:46:50.116Z,59.76
2023-04-12T10:49:19.003Z,57.16
2023-04-12T10:52:13.758Z,55.25
2023-04-12T10:54:41.915Z,51.16
2023-04-12T10:57:42.201Z,53.11
2023-04-12T11:00:11.036Z,55.60
2023-04-12T11:03:09.874Z,53.84
2023-04-12T11:05:58.108Z,56.44
2023-04-12T11:08:58.255Z,57.42
2023-04-12T11:11:27.498Z,55.55
2023-04-12T11:13:57.415Z,54.22
2023-04-12T11:16:25.438Z,56.65
2023-04-12T11:18:55.605Z,57.82
2023-04-12T11:21:23.896Z,58.44
2023-04-12T11:23:53.642Z,58.47
2023-04-12T11:26:22.491Z,59.78
2023-04-12T11:28:53.158Z,61.15
2023-04-12T11:31:23.470Z,63.05
2023-04-12T11:33:51.428Z,63.35
2023-04-12T11:36:20.659Z,62.15
2023-04-12T11:38:50.256Z,61.57
2023-04-12T11:41:18.555Z,59.67
2023-04-12T11:43:47.222Z,61.93
2023-04-12T11:46:15.388Z,60.12
2023-04-12T11:48:46.679Z,62.00
2023-04-12T11:51:24.699Z,63.38
2023-04-12T11:53:57.157Z,64.58
2023-04-12T11:56:25.441Z,64.49
2023-04-12T11:58:53.224Z,64.78
2023-04-12T12:01:22.918Z,64.70
2023-04-12T12:03:51.503Z,66.87
2023-04-12T12:06:22.526Z,65.12
2023-04-12T12:08:51.663Z,62.22
2023-04-12T12:11:21.405Z,63.42
2023-04-12T12:13:50.267Z,63.12
2023-04-12T12:16:18.807Z,62.98
2023-04-12T12:18:52.337Z,61.93
2023-04-12T12:21:22.603Z,60.28
2023-04-12T12:23:50.811Z,60.50
2023-04-12T12:26:22.892Z,61.82
2023-04-12T12:28:52.354Z,61.33
2023-04-12T12:31:22.428Z,60.86
2023-04-12T12:33:54.677Z,60.63
2023-04-12T12:36:31.327Z,60.43
2023-04-12T12:39:06.780Z,58.02
2023-04-12T12:41:36.074Z,55.60
2023-04-12T12:44:04.330Z,56.65
2023-04-12T12:46:50.939Z,56.54
2023-04-12T12:49:20.043Z,57.25
2023-04-12T12:51:49.353Z,59.13
2023-04-12T12:54:32.354Z,61.35
2023-04-12T12:57:06.683Z,61.00
2023-04-12T12:59:34.456Z,62.31
2023-04-12T13:02:02.434Z,58.26
2023-04-12T13:04:30.543Z,54.38
2023-04-12T13:06:59.867Z,50.19
2023-04-12T13:09:27.778Z,47.20
2023-04-12T13:11:57.026Z,45.50
2023-04-12T13:14:24.790Z,46.54
2023-04-12T13:16:52.839Z,47.24
2023-04-12T13:19:20.835Z,45.79
2023-04-12T13:21:51.181Z,43.90
2023-04-12T13:24:21.820Z,43.93
2023-04-12T13:26:49.566Z,44.05
2023-04-12T13:29:17.350Z,43.85
2023-04-12T13:31:45.352Z,44.62
2023-04-12T13:34:13.148Z,43.52
2023-04-12T13:36:40.987Z,44.95
2023-04-12T13:39:08.853Z,43.26
2023-04-12T13:41:38.028Z,43.21
2023-04-12T13:44:05.885Z,43.15
2023-04-12T13:46:33.883Z,41.44
2023-04-12T13:49:01.770Z,39.96
2023-04-12T13:51:29.750Z,35.92
2023-04-12T13:53:57.719Z,35.51
2023-04-12T13:56:25.762Z,39.90
2023-04-12T13:58:55.023Z,37.54
2023-04-12T14:01:24.835Z,36.09
2023-04-12T14:03:53.395Z,36.92
2023-04-12T14:06:21.143Z,41.67
2023-04-12T14:08:49.065Z,42.84
2023-04-12T14:11:17.033Z,40.49
2023-04-12T14:13:44.797Z,35.58
2023-04-12T14:16:13.884Z,31.33
2023-04-12T14:18:41.937Z,33.88
2023-04-12T14:21:11.207Z,34.41
2023-04-12T14:23:39.014Z,35.14
2023-04-12T14:26:07.101Z,36.24
2023-04-12T14:28:35.883Z,37.04
2023-04-12T14:31:06.250Z,39.65
2023-04-12T14:33:35.845Z,36.89
2023-04-12T14:36:05.005Z,31.39
2023-04-12T14:38:33.106Z,32.27
2023-04-12T14:41:01.151Z,31.29
2023-04-12T14:43:29.799Z,33.55
2023-04-12T14:45:57.619Z,37.58
2023-04-12T14:48:25.527Z,39.82
2023-04-12T14:50:55.541Z,39.32
2023-04-12T14:53:23.594Z,40.15
2023-04-12T14:55:51.529Z,42.18
2023-04-12T14:58:19.318Z,43.80
2023-04-12T15:00:48.438Z,47.37
2023-04-12T15:03:17.521Z,52.19
2023-04-12T15:05:45.731Z,59.11
2023-04-12T15:08:14.877Z,63.00
2023-04-12T15:10:42.803Z,67.49
2023-04-12T15:13:10.817Z,71.22
2023-04-12T15:15:38.557Z,70.81
2023-04-12T15:18:06.829Z,71.05
2023-04-12T15:20:34.746Z,70.62
2023-04-12T15:23:02.554Z,69.81
2023-04-12T15:25:32.946Z,69.82
2023-04-12T15:28:01.390Z,69.76
2023-04-12T15:30:29.422Z,70.06
2023-04-12T15:32:58.258Z,69.92
2023-04-12T15:35:27.126Z,70.40
2023-04-12T15:37:55.445Z,68.94
2023-04-12T15:40:24.346Z,67.98
2023-04-12T15:42:53.701Z,68.56
2023-04-12T15:45:21.633Z,68.18
2023-04-12T15:47:49.458Z,68.17
2023-04-12T15:50:19.009Z,67.04
2023-04-12T15:52:47.180Z,67.07
2023-04-12T15:55:17.048Z,66.65
2023-04-12T15:57:44.873Z,68.22
2023-04-12T16:00:21.080Z,70.61
2023-04-12T16:02:53.407Z,70.16
2023-04-12T16:05:21.796Z,69.24
2023-04-12T16:07:51.019Z,68.30
2023-04-12T16:10:21.102Z,66.86
2023-04-12T16:12:49.496Z,66.97
2023-04-12T16:15:20.088Z,65.08
2023-04-12T16:17:48.223Z,65.55
2023-04-12T16:20:18.958Z,65.21
2023-04-12T16:22:48.182Z,63.54
2023-04-12T16:25:16.759Z,63.70
2023-04-12T16:27:44.968Z,60.71
2023-04-12T16:30:15.578Z,58.37
2023-04-12T16:32:46.474Z,57.62
2023-04-12T16:35:14.811Z,57.90
2023-04-12T16:37:42.705Z,56.12
2023-04-12T16:40:12.673Z,55.78
2023-04-12T16:42:41.803Z,55.52
2023-04-12T16:45:10.915Z,55.95
2023-04-12T16:47:39.316Z,55.96
2023-04-12T16:50:12.342Z,55.95
2023-04-12T16:52:41.408Z,55.97
2023-04-12T16:55:11.379Z,56.31
2023-04-12T16:57:40.815Z,56.09
2023-04-12T17:00:21.139Z,56.66
2023-04-12T17:02:50.252Z,57.38
2023-04-12T17:05:20.452Z,57.83
2023-04-12T17:07:50.482Z,58.14
2023-04-12T17:10:19.476Z,58.53
2023-04-12T17:12:48.543Z,58.54
2023-04-12T17:15:18.695Z,58.95
2023-04-12T17:17:48.648Z,58.88
2023-04-12T17:20:16.831Z,58.51
2023-04-12T17:22:46.637Z,58.45
2023-04-12T17:25:15.015Z,58.70
2023-04-12T17:27:42.791Z,58.66
2023-04-12T17:30:13.286Z,57.07
2023-04-12T17:32:41.469Z,56.08
2023-04-12T17:35:10.122Z,53.95
2023-04-12T17:37:39.024Z,53.12
2023-04-12T17:40:11.125Z,52.64
2023-04-12T17:42:41.719Z,53.48
2023-04-12T17:45:12.481Z,54.11
2023-04-12T17:47:40.470Z,53.42
2023-04-12T17:50:10.232Z,54.45
2023-04-12T17:52:38.524Z,53.81
2023-04-12T17:55:09.290Z,54.26
2023-04-12T17:57:37.531Z,54.32
2023-04-12T18:00:08.275Z,54.99
2023-04-12T18:02:40.921Z,55.00
2023-04-12T18:05:09.544Z,55.83
2023-04-12T18:07:39.748Z,55.58
2023-04-12T18:10:12.387Z,55.08
2023-04-12T18:12:40.794Z,56.83
2023-04-12T18:15:09.928Z,55.67
2023-04-12T18:17:39.557Z,55.75
2023-04-12T18:20:10.653Z,56.02
2023-04-12T18:22:38.646Z,56.27
2023-04-12T18:25:07.460Z,57.78
2023-04-12T18:27:36.781Z,58.71
2023-04-12T18:30:05.229Z,57.90
2023-04-12T18:32:33.127Z,59.09
2023-04-12T18:35:01.969Z,59.63
2023-04-12T18:37:29.798Z,59.24
2023-04-12T18:39:57.926Z,59.21
2023-04-12T18:42:26.324Z,59.42
2023-04-12T18:44:56.458Z,60.88
2023-04-12T18:47:24.449Z,62.22
2023-04-12T18:49:52.347Z,61.04
2023-04-12T18:52:20.161Z,61.36
2023-04-12T18:54:48.160Z,61.37
2023-04-12T18:57:16.934Z,60.92
2023-04-12T18:59:47.843Z,61.41
2023-04-12T19:02:18.243Z,62.62
2023-04-12T19:04:46.189Z,62.51
2023-04-12T19:07:15.304Z,63.94
2023-04-12T19:09:43.205Z,65.14
2023-04-12T19:12:11.211Z,64.50
2023-04-12T19:14:39.071Z,63.37
2023-04-12T19:17:06.887Z,64.04
2023-04-12T19:19:36.173Z,64.90
2023-04-12T19:22:03.949Z,65.00
2023-04-12T19:24:31.843Z,64.85
2023-04-12T19:26:59.857Z,65.46
2023-04-12T19:29:27.653Z,67.85
2023-04-12T19:31:55.518Z,66.17
2023-04-12T19:34:23.435Z,65.61
2023-04-12T19:36:53.490Z,64.66
2023-04-12T19:39:22.783Z,66.51
2023-04-12T19:41:51.372Z,66.15
2023-04-12T19:44:19.287Z,65.87
2023-04-12T19:46:47.678Z,66.34
2023-04-12T19:49:15.701Z,66.85
2023-04-12T19:51:43.482Z,67.44
2023-04-12T19:54:13.442Z,68.41
2023-04-12T19:56:41.284Z,68.91
2023-04-12T19:59:10.777Z,68.02
2023-04-12T20:01:47.653Z,67.48
2023-04-12T20:04:16.567Z,67.44
2023-04-12T20:06:45.500Z,67.97
2023-04-12T20:09:15.398Z,67.88
2023-04-12T20:11:43.421Z,67.92
2023-04-12T20:14:11.498Z,68.31
2023-04-12T20:16:42.625Z,67.49
2023-04-12T20:19:11.119Z,67.87
2023-04-12T20:21:39.284Z,67.74
2023-04-12T20:24:09.086Z,67.31
2023-04-12T20:26:38.435Z,67.73
2023-04-12T20:29:06.671Z,66.57
2023-04-12T20:31:35.002Z,67.25
2023-04-12T20:34:04.119Z,66.13
2023-04-12T20:36:32.777Z,65.24
2023-04-12T20:39:01.640Z,64.57
2023-04-12T20:41:29.750Z,62.85
2023-04-12T20:43:59.439Z,62.86
2023-04-12T20:46:27.407Z,62.57
2023-04-12T20:48:56.248Z,61.66
2023-04-12T20:51:25.283Z,59.02
2023-04-12T20:53:53.214Z,57.55
2023-04-12T20:56:21.193Z,56.19
2023-04-12T20:58:49.930Z,54.17
2023-04-12T21:01:19.457Z,52.96
2023-04-12T21:03:47.700Z,51.63
2023-04-12T21:06:15.835Z,52.33
2023-04-12T21:08:44.554Z,52.01
2023-04-12T21:11:12.426Z,52.21
2023-04-12T21:13:40.704Z,51.74
2023-04-12T21:16:09.846Z,51.69
2023-04-12T21:18:41.352Z,51.77
2023-04-12T21:21:10.223Z,52.24
2023-04-12T21:23:38.196Z,52.15
2023-04-12T21:26:06.777Z,52.14
2023-04-12T21:28:34.655Z,52.73
2023-04-12T21:31:02.684Z,52.92
2023-04-12T21:33:32.143Z,52.85
2023-04-12T21:36:01.513Z,52.45
2023-04-12T21:38:29.525Z,53.57
2023-04-12T21:40:58.865Z,53.94
2023-04-12T21:43:26.871Z,55.46
2023-04-12T21:45:54.846Z,54.48
2023-04-12T21:48:22.789Z,54.80
2023-04-12T21:50:50.899Z,55.02
2023-04-12T21:53:20.275Z,54.98
2023-04-12T21:55:49.612Z,56.03
2023-04-12T21:58:17.983Z,57.93
2023-04-12T22:00:46.042Z,57.52
2023-04-12T22:03:14.224Z,58.28
2023-04-12T22:05:44.511Z,57.50
2023-04-12T22:08:14.269Z,58.47
2023-04-12T22:10:43.463Z,59.50
2023-04-12T22:13:11.375Z,58.97
2023-04-12T22:15:40.556Z,58.98
2023-04-12T22:18:08.488Z,59.96
2023-04-12T22:20:36.796Z,61.77
2023-04-12T22:23:04.718Z,61.62
2023-04-12T22:25:32.627Z,62.66
2023-04-12T22:28:02.402Z,62.94
2023-04-12T22:30:31.308Z,62.92
2023-04-12T22:32:59.966Z,62.62
2023-04-12T22:35:30.002Z,62.96
2023-04-12T22:37:57.942Z,62.65
2023-04-12T22:40:25.910Z,62.47
2023-04-12T22:42:53.882Z,61.86
2023-04-12T22:45:23.101Z,62.56
2023-04-12T22:47:51.096Z,63.76
2023-04-12T22:50:19.628Z,64.30
2023-04-12T22:52:49.868Z,64.78
2023-04-12T22:55:18.255Z,65.39
2023-04-12T22:57:47.015Z,65.16
2023-04-12T23:00:18.164Z,65.23
2023-04-12T23:02:48.650Z,64.95
2023-04-12T23:05:17.454Z,64.92
2023-04-12T23:07:45.474Z,64.97
2023-04-12T23:10:13.417Z,64.94
2023-04-12T23:12:41.276Z,64.20
2023-04-12T23:15:10.218Z,64.51
2023-04-12T23:17:38.106Z,64.86
2023-04-12T23:20:13.099Z,65.10
2023-04-12T23:22:57.370Z,64.18
2023-04-12T23:25:29.165Z,64.61
2023-04-12T23:27:57.425Z,63.96
2023-04-12T23:30:29.614Z,63.21
2023-04-12T23:32:58.307Z,62.65
2023-04-12T23:35:27.725Z,62.82
2023-04-12T23:37:56.119Z,62.30
2023-04-12T23:40:24.100Z,62.65
2023-04-12T23:42:52.172Z,62.11
2023-04-12T23:45:20.195Z,62.38
2023-04-12T23:47:48.132Z,62.28
2023-04-12T23:50:16.133Z,62.06
2023-04-12T23:52:45.435Z,61.28
2023-04-12T23:55:13.374Z,60.98
2023-04-12T23:57:42.208Z,60.94
